Time;durP1;ratioP1;P1;durP2;ratioP2;P2;SDS_P1;SDS_P2;PMS_P1;PMS_P2;Temp;Humidity;BMP_temperature;BMP_pressure;BME280_temperature;BME280_humidity;BME280_pressure;Samples;Min_cycle;Max_cycle;Signal;HPM_P1;HPM_P2
2023/10/25 00:01:35;;;;;;;0.47;0.30;;;;;;;;;;5102893;28;20079;-68
2023/10/25 00:04:02;;;;;;;1.95;0.40;;;;;;;;;;5102964;28;20051;-71
2023/10/25 00:06:29;;;;;;;0.95;0.50;;;;;;;;;;5120377;28;20150;-71
2023/10/25 00:08:55;;;;;;;0.65;0.40;;;;;;;;;;5119736;28;20047;-68
2023/10/25 00:11:22;;;;;;;1.08;0.30;;;;;;;;;;5120264;28;20134;-68
2023/10/25 00:13:49;;;;;;;0.98;0.50;;;;;;;;;;5120350;28;20103;-68
2023/10/25 00:16:16;;;;;;;1.40;0.45;;;;;;;;;;5120472;28;20074;-69
2023/10/25 00:18:43;;;;;;;0.30;0.30;;;;;;;;;;5120117;28;20062;-68
2023/10/25 00:21:10;;;;;;;0.47;0.43;;;;;;;;;;5120410;28;20351;-68
2023/10/25 00:23:36;;;;;;;0.65;0.30;;;;;;;;;;5119657;28;20047;-68
2023/10/25 00:26:03;;;;;;;1.15;0.50;;;;;;;;;;5120093;28;20050;-68
2023/10/25 00:28:30;;;;;;;0.65;0.30;;;;;;;;;;5120167;28;20048;-68
2023/10/25 00:30:56;;;;;;;0.88;0.32;;;;;;;;;;5120431;28;20043;-67
2023/10/25 00:33:23;;;;;;;0.30;0.30;;;;;;;;;;5120312;28;20047;-68
2023/10/25 00:35:50;;;;;;;1.38;0.35;;;;;;;;;;5119993;28;20068;-68
2023/10/25 00:38:16;;;;;;;1.33;0.45;;;;;;;;;;5120166;28;20052;-68
2023/10/25 00:40:43;;;;;;;1.58;0.35;;;;;;;;;;5120478;28;20043;-68
2023/10/25 00:43:14;;;;;;;0.25;0.25;;;;;;;;;;5120297;28;20107;-68
2023/10/25 00:46:04;;;;;;;0.32;0.25;;;;;;;;;;5120263;28;20114;-68
2023/10/25 00:48:31;;;;;;;2.38;0.35;;;;;;;;;;5112197;28;20085;-68
2023/10/25 00:50:59;;;;;;;0.73;0.32;;;;;;;;;;5102339;28;20107;-68
2023/10/25 00:53:27;;;;;;;0.70;0.40;;;;;;;;;;5119918;28;20051;-68
2023/10/25 00:55:57;;;;;;;0.70;0.40;;;;;;;;;;5120267;28;20066;-68
2023/10/25 00:58:24;;;;;;;0.88;0.35;;;;;;;;;;5119997;28;20342;-68
2023/10/25 01:00:54;;;;;;;1.40;0.43;;;;;;;;;;5120132;28;20044;-68
2023/10/25 01:03:22;;;;;;;0.30;0.20;;;;;;;;;;5120049;28;20065;-68
2023/10/25 01:05:49;;;;;;;0.20;0.20;;;;;;;;;;5120026;28;20422;-68
2023/10/25 01:08:18;;;;;;;0.20;0.20;;;;;;;;;;5119473;28;20055;-68
2023/10/25 01:10:49;;;;;;;1.23;0.40;;;;;;;;;;5119798;28;20048;-68
2023/10/25 01:13:16;;;;;;;0.55;0.30;;;;;;;;;;5120243;28;20048;-68
2023/10/25 01:15:43;;;;;;;1.83;0.50;;;;;;;;;;5119980;28;20257;-68
2023/10/25 01:18:10;;;;;;;0.70;0.40;;;;;;;;;;5119638;28;20335;-68
2023/10/25 01:20:37;;;;;;;0.60;0.30;;;;;;;;;;5120402;28;20063;-68
2023/10/25 01:23:03;;;;;;;0.93;0.40;;;;;;;;;;5123288;28;20351;-68
2023/10/25 01:25:30;;;;;;;0.98;0.50;;;;;;;;;;5123684;28;20111;-68
2023/10/25 01:27:58;;;;;;;0.50;0.40;;;;;;;;;;5123810;28;20044;-68
2023/10/25 01:30:25;;;;;;;0.75;0.30;;;;;;;;;;5123764;28;20084;-68
2023/10/25 01:32:53;;;;;;;1.25;0.32;;;;;;;;;;5105576;28;20586;-67
2023/10/25 01:35:20;;;;;;;1.88;0.30;;;;;;;;;;5123667;28;20073;-69
2023/10/25 01:37:47;;;;;;;0.95;0.32;;;;;;;;;;5123360;28;20114;-68
2023/10/25 01:40:15;;;;;;;1.75;0.30;;;;;;;;;;5123096;28;20469;-68
2023/10/25 01:42:41;;;;;;;0.50;0.28;;;;;;;;;;5123660;28;20051;-68
2023/10/25 01:45:09;;;;;;;0.25;0.20;;;;;;;;;;5123260;28;20430;-69
2023/10/25 01:47:35;;;;;;;1.02;0.30;;;;;;;;;;5123256;28;20111;-70
2023/10/25 01:50:02;;;;;;;0.30;0.22;;;;;;;;;;5123344;28;20048;-68
2023/10/25 01:52:30;;;;;;;0.40;0.30;;;;;;;;;;5123285;28;20044;-69
2023/10/25 01:54:57;;;;;;;0.32;0.20;;;;;;;;;;5122444;28;20047;-69
2023/10/25 01:57:23;;;;;;;0.60;0.32;;;;;;;;;;5122799;28;20044;-69
2023/10/25 01:59:50;;;;;;;1.52;0.50;;;;;;;;;;5123436;28;20104;-69
2023/10/25 02:02:17;;;;;;;0.50;0.30;;;;;;;;;;5123213;28;20071;-68
2023/10/25 02:04:44;;;;;;;0.30;0.20;;;;;;;;;;5122909;28;20335;-68
2023/10/25 02:07:11;;;;;;;0.50;0.10;;;;;;;;;;5122656;28;20050;-69
2023/10/25 02:09:37;;;;;;;0.30;0.20;;;;;;;;;;5122528;28;20043;-69
2023/10/25 02:12:04;;;;;;;0.55;0.20;;;;;;;;;;5122637;28;20044;-68
2023/10/25 02:14:36;;;;;;;0.32;0.30;;;;;;;;;;5122966;28;20057;-68
2023/10/25 02:17:03;;;;;;;0.70;0.28;;;;;;;;;;5122779;28;20062;-68
2023/10/25 02:19:30;;;;;;;0.43;0.22;;;;;;;;;;5122661;28;20089;-69
2023/10/25 02:21:59;;;;;;;0.68;0.28;;;;;;;;;;5122713;28;20043;-68
2023/10/25 02:24:26;;;;;;;0.20;0.20;;;;;;;;;;5122237;28;20070;-68
2023/10/25 02:26:53;;;;;;;0.85;0.30;;;;;;;;;;5122679;28;20058;-71
2023/10/25 02:29:20;;;;;;;0.20;0.20;;;;;;;;;;5122263;28;20354;-71
2023/10/25 02:31:46;;;;;;;0.43;0.30;;;;;;;;;;5122511;28;20118;-72
2023/10/25 02:34:13;;;;;;;0.80;0.35;;;;;;;;;;5103839;28;20419;-68
2023/10/25 02:36:40;;;;;;;2.03;0.30;;;;;;;;;;5122147;28;20240;-69
2023/10/25 02:39:08;;;;;;;0.17;0.17;;;;;;;;;;5122200;28;20078;-69
2023/10/25 02:41:35;;;;;;;1.90;0.45;;;;;;;;;;5122440;28;20123;-68
2023/10/25 02:44:02;;;;;;;0.50;0.30;;;;;;;;;;5122220;28;20043;-69
2023/10/25 02:46:28;;;;;;;0.40;0.28;;;;;;;;;;5122211;28;20106;-67
2023/10/25 02:48:55;;;;;;;0.40;0.30;;;;;;;;;;5122175;28;20043;-68
2023/10/25 02:51:22;;;;;;;0.63;0.30;;;;;;;;;;5121772;28;20267;-68
2023/10/25 02:53:51;;;;;;;0.60;0.30;;;;;;;;;;5121744;28;20043;-68
2023/10/25 02:56:18;;;;;;;0.80;0.30;;;;;;;;;;5121980;28;20115;-68
2023/10/25 02:58:45;;;;;;;1.50;0.30;;;;;;;;;;5121633;28;20106;-69
2023/10/25 03:01:24;;;;;;;0.63;0.30;;;;;;;;;;5103821;28;20365;-69
2023/10/25 03:03:52;;;;;;;1.60;0.40;;;;;;;;;;5121882;28;20050;-69
2023/10/25 03:06:19;;;;;;;0.32;0.30;;;;;;;;;;5121914;28;20048;-70
2023/10/25 03:08:46;;;;;;;1.83;0.40;;;;;;;;;;5121289;28;20050;-69
2023/10/25 03:11:13;;;;;;;0.75;0.40;;;;;;;;;;5121777;28;20050;-69
2023/10/25 03:13:39;;;;;;;0.70;0.28;;;;;;;;;;5121470;28;20044;-68
2023/10/25 03:16:06;;;;;;;0.28;0.28;;;;;;;;;;5121305;28;20051;-68
2023/10/25 03:18:33;;;;;;;1.38;0.30;;;;;;;;;;5121158;28;20064;-68
2023/10/25 03:21:03;;;;;;;0.50;0.40;;;;;;;;;;5121278;28;20051;-69
2023/10/25 03:23:31;;;;;;;0.40;0.20;;;;;;;;;;5121363;28;20043;-68
2023/10/25 03:26:08;;;;;;;0.13;0.13;;;;;;;;;;5121503;28;20066;-68
2023/10/25 03:28:34;;;;;;;0.57;0.35;;;;;;;;;;5121116;28;20066;-68
2023/10/25 03:31:09;;;;;;;0.98;0.40;;;;;;;;;;5121347;28;20043;-68
2023/10/25 03:33:36;;;;;;;0.50;0.30;;;;;;;;;;5121265;28;20055;-69
2023/10/25 03:36:03;;;;;;;0.65;0.40;;;;;;;;;;5121006;28;20573;-68
2023/10/25 03:38:30;;;;;;;0.75;0.30;;;;;;;;;;5120707;28;20047;-68
2023/10/25 03:41:02;;;;;;;1.23;0.40;;;;;;;;;;5121354;28;20134;-68
2023/10/25 03:43:30;;;;;;;0.57;0.30;;;;;;;;;;5120847;28;20042;-68
2023/10/25 03:45:56;;;;;;;0.52;0.30;;;;;;;;;;5120310;28;20106;-69
2023/10/25 03:48:23;;;;;;;1.92;0.25;;;;;;;;;;5121063;28;20098;-68
2023/10/25 03:50:50;;;;;;;0.20;0.20;;;;;;;;;;5120884;28;20050;-68
2023/10/25 03:53:17;;;;;;;0.50;0.30;;;;;;;;;;5120336;28;20263;-68
2023/10/25 03:55:55;;;;;;;0.90;0.30;;;;;;;;;;5120717;28;20063;-68
2023/10/25 03:58:23;;;;;;;0.63;0.30;;;;;;;;;;5120363;28;20043;-69
2023/10/25 04:01:00;;;;;;;0.50;0.30;;;;;;;;;;5120620;28;20106;-68
2023/10/25 04:03:28;;;;;;;1.88;0.30;;;;;;;;;;5120322;28;20496;-69
2023/10/25 04:05:55;;;;;;;1.10;0.32;;;;;;;;;;5103084;28;20050;-68
2023/10/25 04:08:23;;;;;;;2.25;0.50;;;;;;;;;;5120382;28;20047;-68
2023/10/25 04:10:50;;;;;;;0.63;0.40;;;;;;;;;;5120892;28;20081;-69
2023/10/25 04:13:18;;;;;;;1.52;0.30;;;;;;;;;;5120324;28;20070;-68
2023/10/25 04:16:02;;;;;;;1.38;0.60;;;;;;;;;;5120915;28;20051;-69
2023/10/25 04:18:30;;;;;;;0.30;0.30;;;;;;;;;;5120176;28;20055;-69
2023/10/25 04:20:58;;;;;;;1.38;0.40;;;;;;;;;;5120736;28;20051;-68
2023/10/25 04:23:27;;;;;;;0.57;0.32;;;;;;;;;;5120138;28;20043;-68
2023/10/25 04:26:07;;;;;;;0.75;0.40;;;;;;;;;;5102589;28;20127;-68
2023/10/25 04:28:34;;;;;;;0.25;0.17;;;;;;;;;;5120058;28;20043;-68
2023/10/25 04:31:01;;;;;;;0.40;0.32;;;;;;;;;;5102490;28;20143;-69
2023/10/25 04:33:30;;;;;;;0.93;0.30;;;;;;;;;;5120522;28;20120;-69
2023/10/25 04:35:56;;;;;;;1.83;0.50;;;;;;;;;;5120510;28;20059;-68
2023/10/25 04:38:24;;;;;;;0.70;0.30;;;;;;;;;;5119684;28;20044;-68
2023/10/25 04:40:54;;;;;;;0.70;0.30;;;;;;;;;;5120670;28;20075;-69
2023/10/25 04:43:20;;;;;;;1.33;0.45;;;;;;;;;;5120028;28;20387;-69
2023/10/25 04:45:47;;;;;;;0.40;0.25;;;;;;;;;;5118984;28;20106;-70
2023/10/25 04:48:15;;;;;;;0.40;0.30;;;;;;;;;;5120210;28;20047;-68
2023/10/25 04:50:42;;;;;;;1.02;0.45;;;;;;;;;;5120326;28;20054;-69
2023/10/25 04:53:09;;;;;;;0.60;0.30;;;;;;;;;;5119744;28;20043;-68
2023/10/25 04:55:36;;;;;;;0.63;0.40;;;;;;;;;;5120931;28;20070;-70
2023/10/25 04:58:04;;;;;;;0.55;0.35;;;;;;;;;;5124312;28;20043;-68
2023/10/25 05:00:31;;;;;;;0.52;0.30;;;;;;;;;;5123974;28;20077;-69
2023/10/25 05:02:58;;;;;;;1.30;0.28;;;;;;;;;;5124276;28;20078;-69
2023/10/25 05:05:25;;;;;;;0.90;0.30;;;;;;;;;;5124134;28;20043;-68
2023/10/25 05:07:52;;;;;;;0.80;0.40;;;;;;;;;;5124169;28;20050;-69
2023/10/25 05:10:19;;;;;;;1.20;0.30;;;;;;;;;;5123512;28;20044;-69
2023/10/25 05:12:47;;;;;;;0.63;0.30;;;;;;;;;;5123878;28;20423;-68
2023/10/25 05:15:16;;;;;;;0.90;0.35;;;;;;;;;;5123121;28;20048;-69
2023/10/25 05:17:45;;;;;;;0.38;0.30;;;;;;;;;;5123707;28;20051;-69
2023/10/25 05:20:13;;;;;;;0.50;0.28;;;;;;;;;;5123899;28;20043;-69
2023/10/25 05:22:42;;;;;;;0.32;0.30;;;;;;;;;;5123671;28;20047;-70
2023/10/25 05:25:10;;;;;;;0.55;0.40;;;;;;;;;;5123590;28;20054;-69
2023/10/25 05:27:40;;;;;;;0.88;0.40;;;;;;;;;;5123145;28;20114;-69
2023/10/25 05:30:09;;;;;;;0.45;0.30;;;;;;;;;;5123579;28;20290;-68
2023/10/25 05:32:37;;;;;;;0.90;0.40;;;;;;;;;;5123594;28;20134;-68
2023/10/25 05:35:05;;;;;;;0.28;0.20;;;;;;;;;;5123870;28;20047;-68
2023/10/25 05:37:33;;;;;;;0.95;0.43;;;;;;;;;;5122585;28;20162;-68
2023/10/25 05:40:00;;;;;;;2.17;0.50;;;;;;;;;;5122845;28;20107;-70
2023/10/25 05:42:27;;;;;;;1.27;0.57;;;;;;;;;;5123683;28;20050;-69
2023/10/25 05:44:55;;;;;;;2.00;0.57;;;;;;;;;;5123795;28;20043;-68
2023/10/25 05:47:23;;;;;;;0.77;0.50;;;;;;;;;;5123342;28;20044;-70
2023/10/25 05:49:51;;;;;;;1.80;0.60;;;;;;;;;;5123276;28;20050;-68
2023/10/25 05:52:18;;;;;;;1.63;0.57;;;;;;;;;;5123368;28;20111;-70
2023/10/25 05:54:46;;;;;;;0.90;0.50;;;;;;;;;;5122687;28;20044;-68
2023/10/25 05:57:14;;;;;;;2.15;0.60;;;;;;;;;;5123373;28;20043;-70
2023/10/25 05:59:41;;;;;;;0.80;0.43;;;;;;;;;;5122640;28;20043;-69
2023/10/25 06:02:10;;;;;;;1.10;0.40;;;;;;;;;;5123212;28;20047;-71
2023/10/25 06:04:39;;;;;;;1.45;0.60;;;;;;;;;;5122902;28;20231;-72
2023/10/25 06:07:07;;;;;;;0.38;0.32;;;;;;;;;;5122436;28;20047;-71
2023/10/25 06:09:35;;;;;;;1.23;0.50;;;;;;;;;;5122298;28;20062;-70
2023/10/25 06:12:02;;;;;;;1.38;0.50;;;;;;;;;;5122950;28;20205;-69
2023/10/25 06:14:31;;;;;;;0.43;0.30;;;;;;;;;;5122937;28;20048;-69
2023/10/25 06:16:58;;;;;;;1.65;0.50;;;;;;;;;;5122347;28;20063;-69
2023/10/25 06:19:26;;;;;;;1.17;0.50;;;;;;;;;;5122379;28;20047;-69
2023/10/25 06:21:53;;;;;;;1.70;0.60;;;;;;;;;;5122831;28;20043;-68
2023/10/25 06:24:20;;;;;;;0.85;0.50;;;;;;;;;;5122226;28;20107;-69
2023/10/25 06:26:47;;;;;;;1.42;0.57;;;;;;;;;;5122712;28;20043;-71
2023/10/25 06:29:17;;;;;;;0.80;0.50;;;;;;;;;;5122089;28;20050;-71
2023/10/25 06:31:50;;;;;;;0.98;0.57;;;;;;;;;;5122452;28;20213;-69
2023/10/25 06:34:20;;;;;;;2.63;0.95;;;;;;;;;;5122079;28;20043;-68
2023/10/25 06:36:48;;;;;;;0.83;0.50;;;;;;;;;;5122501;28;20049;-69
2023/10/25 06:39:15;;;;;;;0.85;0.50;;;;;;;;;;5121803;28;20051;-69
2023/10/25 06:41:43;;;;;;;1.02;0.57;;;;;;;;;;5122439;28;20317;-68
2023/10/25 06:44:11;;;;;;;1.00;0.60;;;;;;;;;;5122128;28;20439;-68
2023/10/25 06:46:40;;;;;;;2.90;0.60;;;;;;;;;;5121890;28;20378;-68
2023/10/25 06:49:07;;;;;;;1.35;0.47;;;;;;;;;;5122008;28;20040;-68
2023/10/25 06:51:35;;;;;;;2.00;0.60;;;;;;;;;;5122277;28;20047;-68
2023/10/25 06:54:02;;;;;;;1.38;0.70;;;;;;;;;;5121754;28;20089;-68
2023/10/25 06:56:29;;;;;;;1.52;0.63;;;;;;;;;;5121993;28;20081;-70
2023/10/25 06:58:56;;;;;;;1.35;0.80;;;;;;;;;;5121858;28;20110;-70
2023/10/25 07:01:27;;;;;;;1.52;0.55;;;;;;;;;;5121861;28;20079;-70
2023/10/25 07:03:57;;;;;;;1.85;0.82;;;;;;;;;;5104094;28;20096;-69
2023/10/25 07:06:24;;;;;;;1.25;0.80;;;;;;;;;;5121767;28;20310;-71
2023/10/25 07:08:51;;;;;;;1.55;0.70;;;;;;;;;;5121639;28;20087;-70
2023/10/25 07:11:18;;;;;;;1.52;0.65;;;;;;;;;;5121637;28;20051;-69
2023/10/25 07:13:47;;;;;;;2.30;0.60;;;;;;;;;;5121661;28;20100;-69
2023/10/25 07:16:14;;;;;;;0.60;0.50;;;;;;;;;;5121609;28;20077;-68
2023/10/25 07:18:41;;;;;;;1.85;0.50;;;;;;;;;;5121227;28;20419;-71
2023/10/25 07:21:08;;;;;;;1.27;0.45;;;;;;;;;;5121409;28;20107;-68
2023/10/25 07:23:35;;;;;;;0.75;0.40;;;;;;;;;;5120849;28;20374;-67
2023/10/25 07:26:01;;;;;;;1.63;0.60;;;;;;;;;;5121538;28;20057;-69
2023/10/25 07:28:28;;;;;;;1.10;0.47;;;;;;;;;;5120762;28;20118;-68
2023/10/25 07:30:55;;;;;;;1.63;0.60;;;;;;;;;;5121008;28;20052;-68
2023/10/25 07:33:22;;;;;;;2.38;0.50;;;;;;;;;;5112503;28;20107;-69
2023/10/25 07:35:49;;;;;;;0.93;0.50;;;;;;;;;;5106715;28;20052;-69
2023/10/25 07:38:16;;;;;;;1.83;0.63;;;;;;;;;;5117249;28;20186;-67
2023/10/25 07:40:42;;;;;;;0.75;0.40;;;;;;;;;;5119240;28;20043;-68
2023/10/25 07:43:09;;;;;;;1.45;0.43;;;;;;;;;;5100599;28;20183;-69
2023/10/25 07:45:36;;;;;;;0.68;0.30;;;;;;;;;;5082687;28;20051;-69
2023/10/25 07:48:03;;;;;;;1.20;0.50;;;;;;;;;;5100668;28;20082;-68
2023/10/25 07:50:31;;;;;;;0.63;0.40;;;;;;;;;;5112728;28;20051;-68
2023/10/25 07:52:58;;;;;;;1.00;0.40;;;;;;;;;;5120859;28;20070;-68
2023/10/25 07:55:25;;;;;;;3.28;0.70;;;;;;;;;;5120566;28;20044;-68
2023/10/25 07:57:54;;;;;;;1.13;0.60;;;;;;;;;;5120796;28;20093;-69
2023/10/25 08:00:24;;;;;;;0.70;0.50;;;;;;;;;;5120418;28;20047;-68
2023/10/25 08:02:51;;;;;;;0.68;0.43;;;;;;;;;;5102789;28;20050;-68
2023/10/25 08:05:17;;;;;;;1.85;0.60;;;;;;;;;;5120514;28;20110;-70
2023/10/25 08:07:47;;;;;;;1.58;0.50;;;;;;;;;;5107292;28;20116;-69
2023/10/25 08:10:14;;;;;;;3.85;0.70;;;;;;;;;;5099909;28;20111;-68
2023/10/25 08:12:41;;;;;;;2.28;0.60;;;;;;;;;;5100343;28;20044;-71
2023/10/25 08:15:08;;;;;;;2.42;0.70;;;;;;;;;;5100338;28;20044;-73
2023/10/25 08:17:35;;;;;;;3.00;0.85;;;;;;;;;;5099211;28;20151;-71
2023/10/25 08:20:03;;;;;;;2.92;0.52;;;;;;;;;;5100081;28;20240;-70
2023/10/25 08:22:30;;;;;;;1.40;0.70;;;;;;;;;;5082113;28;20044;-70
2023/10/25 08:24:57;;;;;;;1.75;0.90;;;;;;;;;;5081603;28;20043;-70
2023/10/25 08:27:23;;;;;;;1.23;0.70;;;;;;;;;;5099711;28;20111;-71
2023/10/25 08:29:51;;;;;;;1.50;0.60;;;;;;;;;;5081941;28;20408;-71
2023/10/25 08:32:18;;;;;;;2.00;0.50;;;;;;;;;;5100558;28;20062;-71
2023/10/25 08:34:47;;;;;;;1.60;0.60;;;;;;;;;;5115411;28;20074;-70
2023/10/25 08:37:14;;;;;;;2.47;0.70;;;;;;;;;;5111184;28;20079;-71
2023/10/25 08:39:42;;;;;;;3.00;0.93;;;;;;;;;;5098455;28;20056;-70
2023/10/25 08:42:11;;;;;;;2.92;0.90;;;;;;;;;;5115699;28;20293;-71
2023/10/25 08:44:41;;;;;;;1.63;0.90;;;;;;;;;;5120079;28;20043;-71
2023/10/25 08:47:10;;;;;;;4.03;1.00;;;;;;;;;;5120292;28;20044;-71
2023/10/25 08:49:37;;;;;;;2.95;0.77;;;;;;;;;;5120004;28;20349;-70
2023/10/25 08:52:06;;;;;;;4.78;0.82;;;;;;;;;;5112858;28;20444;-70
2023/10/25 08:54:35;;;;;;;4.90;0.65;;;;;;;;;;5111061;28;20107;-71
2023/10/25 08:57:03;;;;;;;2.80;0.95;;;;;;;;;;5089290;28;20040;-72
2023/10/25 08:59:31;;;;;;;2.70;0.68;;;;;;;;;;5109952;28;20044;-70
2023/10/25 09:01:57;;;;;;;3.95;0.80;;;;;;;;;;5110116;28;20044;-74
2023/10/25 09:04:24;;;;;;;2.05;0.60;;;;;;;;;;5108974;28;20052;-70
2023/10/25 09:06:51;;;;;;;4.13;0.73;;;;;;;;;;5111077;28;20046;-71
2023/10/25 09:09:18;;;;;;;5.07;0.68;;;;;;;;;;5111134;28;20044;-70
2023/10/25 09:11:46;;;;;;;3.97;0.90;;;;;;;;;;5119847;28;20044;-71
2023/10/25 09:14:13;;;;;;;4.97;0.80;;;;;;;;;;5117631;28;20051;-72
2023/10/25 09:16:44;;;;;;;2.33;0.70;;;;;;;;;;5116188;28;20331;-74
2023/10/25 09:19:11;;;;;;;;;;;;;;;;;;5118704;28;20043;-70
2023/10/25 09:21:38;;;;;;;2.13;0.52;;;;;;;;;;5117544;28;19922;-70
2023/10/25 09:24:08;;;;;;;5.78;0.90;;;;;;;;;;5117862;28;20054;-71
2023/10/25 09:26:39;;;;;;;3.03;0.83;;;;;;;;;;5110608;28;20328;-68
2023/10/25 09:29:09;;;;;;;1.48;0.57;;;;;;;;;;5102214;28;20089;-69
2023/10/25 09:31:37;;;;;;;1.20;0.50;;;;;;;;;;5115422;28;20051;-68
2023/10/25 09:34:08;;;;;;;5.22;0.70;;;;;;;;;;5109917;28;20052;-68
2023/10/25 09:36:36;;;;;;;3.30;0.75;;;;;;;;;;5114546;28;20036;-76
2023/10/25 09:39:04;;;;;;;2.85;0.82;;;;;;;;;;5109057;28;20144;-68
2023/10/25 09:41:36;;;;;;;5.50;0.93;;;;;;;;;;5108825;28;20064;-70
2023/10/25 09:44:11;;;;;;;3.58;0.68;;;;;;;;;;5112883;28;20072;-71
2023/10/25 09:46:42;;;;;;;2.75;0.70;;;;;;;;;;5106157;28;20086;-75
2023/10/25 09:49:11;;;;;;;3.65;1.05;;;;;;;;;;5106016;28;20082;-69
2023/10/25 09:52:01;;;;;;;3.78;1.10;;;;;;;;;;5107539;28;20201;-69
2023/10/25 09:54:32;;;;;;;2.33;0.60;;;;;;;;;;5114439;28;20040;-69
2023/10/25 09:57:01;;;;;;;2.55;0.70;;;;;;;;;;5114245;28;20089;-69
2023/10/25 09:59:32;;;;;;;2.33;0.70;;;;;;;;;;5115907;28;20047;-69
2023/10/25 10:02:05;;;;;;;;;;;;;;;;;;5109470;28;20085;-69
2023/10/25 10:04:58;;;;;;;2.88;0.70;;;;;;;;;;5101669;28;20007;-68
2023/10/25 10:07:54;;;;;;;5.05;0.90;;;;;;;;;;5111516;28;20063;-68
2023/10/25 10:10:28;;;;;;;2.38;0.50;;;;;;;;;;5110314;28;20047;-68
2023/10/25 10:12:55;;;;;;;5.20;0.93;;;;;;;;;;5118805;28;20062;-68
2023/10/25 10:16:15;;;;;;;2.92;0.75;;;;;;;;;;5101295;28;20467;-69
2023/10/25 10:18:47;;;;;;;3.35;1.00;;;;;;;;;;5098304;28;20059;-68
2023/10/25 10:21:14;;;;;;;5.00;0.80;;;;;;;;;;5120741;28;20082;-68
2023/10/25 10:23:49;;;;;;;7.70;1.08;;;;;;;;;;5103234;28;20047;-68
2023/10/25 10:26:47;;;;;;;2.50;0.65;;;;;;;;;;5116848;28;20097;-72
2023/10/25 10:29:33;;;;;;;2.35;0.60;;;;;;;;;;5109918;28;20047;-70
2023/10/25 10:32:01;;;;;;;4.55;0.90;;;;;;;;;;5107797;28;20052;-68
2023/10/25 10:34:40;;;;;;;6.90;0.90;;;;;;;;;;5111286;28;20078;-67
2023/10/25 10:37:13;;;;;;;3.00;0.80;;;;;;;;;;5108649;28;20044;-69
2023/10/25 10:39:58;;;;;;;4.88;0.63;;;;;;;;;;5106755;28;20044;-68
2023/10/25 10:42:34;;;;;;;3.05;0.63;;;;;;;;;;5109496;28;20062;-69
2023/10/25 10:45:04;;;;;;;1.85;0.68;;;;;;;;;;5112384;28;20055;-68
2023/10/25 10:47:44;;;;;;;4.10;0.73;;;;;;;;;;5109304;28;20050;-69
2023/10/25 10:50:14;;;;;;;2.00;0.75;;;;;;;;;;5109813;28;20071;-68
2023/10/25 10:52:43;;;;;;;1.58;0.70;;;;;;;;;;5108824;28;20316;-68
2023/10/25 10:55:14;;;;;;;3.25;1.02;;;;;;;;;;5110164;28;20039;-68
2023/10/25 10:57:40;;;;;;;;;;;;;;;;;;5105567;28;20495;-69
2023/10/25 11:00:18;;;;;;;2.33;0.70;;;;;;;;;;5108561;28;19967;-68
2023/10/25 11:02:46;;;;;;;2.40;0.70;;;;;;;;;;5105770;28;20127;-70
2023/10/25 11:05:22;;;;;;;2.03;0.75;;;;;;;;;;5109610;28;20047;-67
2023/10/25 11:07:51;;;;;;;3.05;0.63;;;;;;;;;;5093602;28;20118;-67
2023/10/25 11:10:18;;;;;;;2.45;0.63;;;;;;;;;;5104492;28;20048;-68
2023/10/25 11:12:46;;;;;;;3.50;0.73;;;;;;;;;;5106440;28;20947;-67
2023/10/25 11:15:13;;;;;;;1.80;0.60;;;;;;;;;;5107751;28;20097;-67
2023/10/25 11:17:40;;;;;;;3.88;0.77;;;;;;;;;;5099790;28;20068;-67
2023/10/25 11:20:08;;;;;;;5.35;0.68;;;;;;;;;;5092580;28;20071;-67
2023/10/25 11:22:36;;;;;;;2.55;0.65;;;;;;;;;;5091761;28;20190;-68
2023/10/25 11:25:10;;;;;;;4.15;0.80;;;;;;;;;;5092244;28;20040;-69
2023/10/25 11:27:38;;;;;;;2.80;0.73;;;;;;;;;;5107128;28;20499;-68
2023/10/25 11:30:08;;;;;;;4.32;0.80;;;;;;;;;;5112517;28;20050;-68
2023/10/25 11:32:35;;;;;;;3.47;0.70;;;;;;;;;;5110400;28;20158;-68
2023/10/25 11:35:02;;;;;;;4.38;0.85;;;;;;;;;;5110599;28;20044;-68
2023/10/25 11:37:46;;;;;;;3.78;0.50;;;;;;;;;;5109567;28;20058;-70
2023/10/25 11:40:12;;;;;;;3.75;0.85;;;;;;;;;;5108582;28;20090;-68
2023/10/25 11:42:40;;;;;;;7.13;0.93;;;;;;;;;;5109765;28;20130;-68
2023/10/25 11:45:08;;;;;;;2.00;0.52;;;;;;;;;;5109613;28;20046;-68
2023/10/25 11:47:37;;;;;;;5.57;0.77;;;;;;;;;;5107736;28;20046;-68
2023/10/25 11:50:05;;;;;;;2.22;0.50;;;;;;;;;;5107791;28;20398;-69
2023/10/25 11:52:32;;;;;;;7.10;0.70;;;;;;;;;;5106698;28;20104;-68
2023/10/25 11:55:00;;;;;;;2.28;0.70;;;;;;;;;;5107463;28;20100;-68
2023/10/25 11:57:36;;;;;;;2.42;0.60;;;;;;;;;;5107646;28;20533;-68
2023/10/25 12:00:04;;;;;;;3.58;0.60;;;;;;;;;;5107899;28;20051;-68
2023/10/25 12:02:31;;;;;;;3.95;0.70;;;;;;;;;;5108313;28;20483;-70
2023/10/25 12:04:59;;;;;;;4.07;0.80;;;;;;;;;;5109143;28;20044;-68
2023/10/25 12:07:26;;;;;;;3.47;0.60;;;;;;;;;;5108623;28;20629;-68
2023/10/25 12:09:53;;;;;;;2.53;0.68;;;;;;;;;;5108653;28;20048;-69
2023/10/25 12:12:20;;;;;;;4.70;1.25;;;;;;;;;;5108929;28;20044;-68
2023/10/25 12:14:48;;;;;;;3.63;0.70;;;;;;;;;;5109198;28;20040;-68
2023/10/25 12:17:15;;;;;;;2.65;0.82;;;;;;;;;;5108702;28;20051;-68
2023/10/25 12:19:43;;;;;;;3.58;0.70;;;;;;;;;;5109059;28;20047;-68
2023/10/25 12:22:12;;;;;;;2.45;0.57;;;;;;;;;;5109350;28;20070;-68
2023/10/25 12:24:42;;;;;;;3.40;0.63;;;;;;;;;;5108521;28;20100;-68
2023/10/25 12:27:11;;;;;;;3.58;1.02;;;;;;;;;;5109054;28;20044;-68
2023/10/25 12:29:41;;;;;;;4.90;0.60;;;;;;;;;;5108826;28;20071;-69
2023/10/25 12:32:08;;;;;;;2.17;0.60;;;;;;;;;;5109125;28;20050;-69
2023/10/25 12:34:35;;;;;;;1.63;0.50;;;;;;;;;;5109002;28;20069;-69
2023/10/25 12:37:01;;;;;;;2.58;0.60;;;;;;;;;;5109136;28;20044;-69
2023/10/25 12:39:28;;;;;;;2.22;0.47;;;;;;;;;;5108666;28;20123;-69
2023/10/25 12:41:55;;;;;;;3.55;0.85;;;;;;;;;;5109172;28;20048;-68
2023/10/25 12:44:21;;;;;;;4.95;0.73;;;;;;;;;;5108644;28;20039;-68
2023/10/25 12:46:48;;;;;;;7.75;1.10;;;;;;;;;;5108898;28;20071;-68
2023/10/25 12:49:16;;;;;;;3.22;0.75;;;;;;;;;;5108753;28;20054;-68
2023/10/25 12:51:44;;;;;;;2.25;0.55;;;;;;;;;;5104374;28;20044;-69
2023/10/25 12:54:10;;;;;;;2.72;0.60;;;;;;;;;;5087844;28;20648;-70
2023/10/25 12:56:37;;;;;;;6.70;1.40;;;;;;;;;;5088296;28;20389;-68
2023/10/25 12:59:05;;;;;;;1.75;0.60;;;;;;;;;;5088635;28;20048;-69
2023/10/25 13:01:32;;;;;;;3.97;0.73;;;;;;;;;;5088098;28;20048;-70
2023/10/25 13:04:00;;;;;;;6.50;1.10;;;;;;;;;;5088126;28;20046;-68
2023/10/25 13:06:27;;;;;;;4.00;0.80;;;;;;;;;;5070275;28;20488;-68
2023/10/25 13:08:55;;;;;;;2.75;0.90;;;;;;;;;;5087686;28;20052;-70
2023/10/25 13:11:22;;;;;;;5.10;0.90;;;;;;;;;;5088291;28;20618;-70
2023/10/25 13:13:48;;;;;;;3.78;1.02;;;;;;;;;;5088022;28;20435;-68
2023/10/25 13:16:15;;;;;;;4.35;0.70;;;;;;;;;;5088018;28;20138;-71
2023/10/25 13:18:44;;;;;;;4.95;0.80;;;;;;;;;;5091635;28;20066;-70
2023/10/25 13:21:11;;;;;;;4.30;0.98;;;;;;;;;;5092108;28;20059;-68
2023/10/25 13:23:38;;;;;;;2.38;0.45;;;;;;;;;;5091499;28;20055;-68
2023/10/25 13:26:04;;;;;;;2.55;0.68;;;;;;;;;;5092315;28;20131;-69
2023/10/25 13:28:31;;;;;;;2.58;0.60;;;;;;;;;;5091719;28;20547;-68
2023/10/25 13:30:58;;;;;;;2.67;0.85;;;;;;;;;;5092096;28;20253;-69
2023/10/25 13:33:24;;;;;;;4.05;0.90;;;;;;;;;;5091491;28;20488;-68
2023/10/25 13:35:53;;;;;;;2.58;0.60;;;;;;;;;;5091526;28;20393;-70
2023/10/25 13:38:20;;;;;;;3.75;0.80;;;;;;;;;;5091402;28;20074;-68
2023/10/25 13:40:48;;;;;;;2.78;0.60;;;;;;;;;;5091369;28;20159;-68
2023/10/25 13:43:15;;;;;;;5.05;0.70;;;;;;;;;;5091326;28;20538;-68
2023/10/25 13:45:44;;;;;;;3.05;0.70;;;;;;;;;;5091508;28;20483;-69
2023/10/25 13:48:12;;;;;;;4.35;0.70;;;;;;;;;;5091523;28;20071;-68
2023/10/25 13:50:39;;;;;;;1.95;0.50;;;;;;;;;;5091536;28;20048;-68
2023/10/25 13:53:06;;;;;;;4.00;0.80;;;;;;;;;;5090841;28;20048;-68
2023/10/25 13:55:39;;;;;;;1.88;0.60;;;;;;;;;;5072904;28;20052;-68
2023/10/25 13:58:09;;;;;;;4.65;0.70;;;;;;;;;;5091462;28;20048;-68
2023/10/25 14:00:41;;;;;;;3.70;0.85;;;;;;;;;;5102501;28;20052;-68
2023/10/25 14:03:08;;;;;;;3.33;0.80;;;;;;;;;;5111447;28;20044;-69
2023/10/25 14:05:46;;;;;;;1.77;0.47;;;;;;;;;;5111445;28;20043;-68
2023/10/25 14:08:13;;;;;;;4.82;0.68;;;;;;;;;;5110779;28;20054;-68
2023/10/25 14:10:44;;;;;;;2.78;0.80;;;;;;;;;;5111649;28;20423;-69
2023/10/25 14:13:11;;;;;;;2.50;0.60;;;;;;;;;;5111419;28;20090;-67
2023/10/25 14:15:58;;;;;;;1.88;0.55;;;;;;;;;;5111284;28;20092;-69
2023/10/25 14:18:25;;;;;;;5.50;0.85;;;;;;;;;;5111084;28;20051;-68
2023/10/25 14:20:52;;;;;;;4.80;0.80;;;;;;;;;;5111348;28;20051;-69
2023/10/25 14:23:18;;;;;;;3.05;0.70;;;;;;;;;;5111236;28;20055;-68
2023/10/25 14:25:46;;;;;;;3.25;0.60;;;;;;;;;;5111065;28;20043;-68
2023/10/25 14:28:13;;;;;;;2.88;0.80;;;;;;;;;;5110765;28;20044;-69
2023/10/25 14:30:42;;;;;;;3.10;0.88;;;;;;;;;;5110688;28;20043;-70
2023/10/25 14:33:10;;;;;;;2.92;0.80;;;;;;;;;;5110756;28;20051;-68
2023/10/25 14:35:38;;;;;;;3.65;0.70;;;;;;;;;;5110866;28;20119;-68
2023/10/25 14:38:05;;;;;;;3.28;1.00;;;;;;;;;;5092663;28;20055;-69
2023/10/25 14:40:37;;;;;;;3.92;0.57;;;;;;;;;;5110616;28;20538;-69
2023/10/25 14:43:04;;;;;;;2.55;1.00;;;;;;;;;;5110862;28;20044;-70
2023/10/25 14:45:35;;;;;;;2.45;0.55;;;;;;;;;;5110506;28;20048;-68
2023/10/25 14:48:02;;;;;;;2.97;0.90;;;;;;;;;;5111026;28;20051;-69
2023/10/25 14:50:37;;;;;;;3.70;0.80;;;;;;;;;;5110680;28;20075;-71
2023/10/25 14:53:04;;;;;;;2.85;0.70;;;;;;;;;;5110327;28;20109;-68